Time;durP1;ratioP1;P1;durP2;ratioP2;P2;SDS_P1;SDS_P2;PMS_P1;PMS_P2;Temp;Humidity;BMP_temperature;BMP_pressure;BME280_temperature;BME280_humidity;BME280_pressure;Samples;Min_cycle;Max_cycle;Signal;HPM_P1;HPM_P2
2022/03/07 00:02:43;;;;;;;1.90;1.10;;;;;;;-148.56;100.00;61375.16;5002997;28;20033;-30
2022/03/07 00:06:07;;;;;;;1.60;1.27;;;;;;;-148.56;100.00;61375.16;5002817;28;20139;-29
2022/03/07 00:09:31;;;;;;;1.00;0.90;;;;;;;-148.56;100.00;61375.16;5002188;28;20029;-30
2022/03/07 00:12:55;;;;;;;1.70;1.20;;;;;;;-148.56;100.00;61375.16;5003197;28;20373;-32
2022/03/07 00:16:19;;;;;;;1.60;1.20;;;;;;;-148.56;100.00;61375.16;4998461;28;20534;-29
2022/03/07 00:19:43;;;;;;;1.15;0.93;;;;;;;-148.56;100.00;61375.16;5001382;28;20113;-31
2022/03/07 00:23:09;;;;;;;2.47;1.05;;;;;;;-148.56;100.00;61375.16;5001732;28;20044;-32
2022/03/07 00:26:33;;;;;;;1.17;1.05;;;;;;;-148.56;100.00;61375.16;4999457;28;20080;-28
2022/03/07 00:29:57;;;;;;;1.13;1.00;;;;;;;-148.56;100.00;61375.16;5000838;28;20143;-31
2022/03/07 00:33:21;;;;;;;1.27;1.17;;;;;;;-148.56;100.00;61375.16;5003979;28;20507;-30
2022/03/07 00:36:45;;;;;;;1.00;0.90;;;;;;;-148.56;100.00;61375.16;5002135;28;20035;-25
2022/03/07 00:40:10;;;;;;;0.85;0.80;;;;;;;-148.56;100.00;61375.16;4998258;28;20041;-27
2022/03/07 00:43:34;;;;;;;2.42;1.10;;;;;;;-148.56;100.00;61375.16;4999941;28;20765;-29
2022/03/07 00:46:58;;;;;;;1.25;0.95;;;;;;;-148.56;100.00;61375.16;4999897;28;20065;-28
2022/03/07 00:50:22;;;;;;;1.42;1.10;;;;;;;-148.56;100.00;61375.16;5000369;28;20029;-26
2022/03/07 00:53:47;;;;;;;1.92;0.98;;;;;;;-148.56;100.00;61375.16;4996886;28;20703;-27
2022/03/07 00:57:11;;;;;;;1.25;0.90;;;;;;;-148.56;100.00;61375.16;5000055;28;20029;-27
2022/03/07 01:00:36;;;;;;;3.80;1.00;;;;;;;-148.56;100.00;61375.16;4998000;28;20022;-31
2022/03/07 01:04:00;;;;;;;1.23;0.90;;;;;;;-148.56;100.00;61375.16;5000039;28;20072;-30
2022/03/07 01:07:24;;;;;;;1.20;0.82;;;;;;;-148.56;100.00;61375.16;5003203;28;20033;-30
2022/03/07 01:10:47;;;;;;;2.40;0.80;;;;;;;-148.56;100.00;61375.16;4999280;28;20041;-30
2022/03/07 01:14:11;;;;;;;1.15;0.75;;;;;;;-148.56;100.00;61375.16;4999181;28;20037;-30
2022/03/07 01:17:36;;;;;;;1.10;0.80;;;;;;;-148.56;100.00;61375.16;5002725;28;20091;-29
2022/03/07 01:21:00;;;;;;;0.75;0.70;;;;;;;-148.56;100.00;61375.16;5001610;28;20136;-30
2022/03/07 01:24:23;;;;;;;0.90;0.80;;;;;;;-148.56;100.00;61375.16;4999730;28;20761;-32
2022/03/07 01:27:47;;;;;;;0.93;0.85;;;;;;;-148.56;100.00;61375.16;4998757;28;20116;-28
2022/03/07 01:31:11;;;;;;;0.88;0.70;;;;;;;-148.56;100.00;61375.16;5007398;28;20447;-28
2022/03/07 01:34:35;;;;;;;0.80;0.80;;;;;;;-148.56;100.00;61375.16;5007290;28;20049;-30
2022/03/07 01:37:59;;;;;;;8.77;1.70;;;;;;;-148.56;100.00;61375.16;5002207;28;20037;-26
2022/03/07 01:41:23;;;;;;;2.15;1.00;;;;;;;-148.56;100.00;61375.16;4999969;28;20053;-26
2022/03/07 01:44:47;;;;;;;1.80;1.10;;;;;;;-148.56;100.00;61375.16;4998870;28;20037;-28
2022/03/07 01:48:11;;;;;;;1.15;1.00;;;;;;;-148.56;100.00;61375.16;4999312;28;20109;-34
2022/03/07 01:51:35;;;;;;;1.55;0.98;;;;;;;-148.56;100.00;61375.16;4998797;28;20657;-29
2022/03/07 01:54:58;;;;;;;1.92;0.90;;;;;;;-148.56;100.00;61375.16;5000650;28;20160;-32
2022/03/07 01:58:22;;;;;;;2.53;0.88;;;;;;;-148.56;100.00;61375.16;4999629;28;20364;-30
2022/03/07 02:01:46;;;;;;;1.13;1.00;;;;;;;-148.56;100.00;61375.16;5000912;28;20791;-27
2022/03/07 02:05:10;;;;;;;1.73;1.00;;;;;;;-148.56;100.00;61375.16;5000147;28;20029;-29
2022/03/07 02:08:35;;;;;;;1.13;0.95;;;;;;;-148.56;100.00;61375.16;4999042;28;20057;-32
2022/03/07 02:11:59;;;;;;;2.60;0.70;;;;;;;-148.56;100.00;61375.16;4996524;28;20037;-30
2022/03/07 02:15:23;;;;;;;1.63;0.80;;;;;;;-148.56;100.00;61375.16;4998395;28;20515;-27
2022/03/07 02:18:51;;;;;;;0.80;0.80;;;;;;;-148.56;100.00;61375.16;4999336;28;20041;-30
2022/03/07 02:22:16;;;;;;;1.30;0.90;;;;;;;-148.56;100.00;61375.16;4996267;28;20064;-28
2022/03/07 02:25:40;;;;;;;1.30;0.90;;;;;;;-148.56;100.00;61375.16;4998788;28;20058;-32
2022/03/07 02:29:04;;;;;;;1.52;0.80;;;;;;;-148.56;100.00;61375.16;5000214;28;20017;-28
2022/03/07 02:32:28;;;;;;;1.65;0.80;;;;;;;-148.56;100.00;61375.16;4999159;28;20153;-30
2022/03/07 02:35:51;;;;;;;1.25;0.60;;;;;;;-148.56;100.00;61375.16;4997599;28;20107;-25
2022/03/07 02:39:15;;;;;;;1.52;0.75;;;;;;;-148.56;100.00;61375.16;4998668;28;20033;-28
2022/03/07 02:42:39;;;;;;;1.40;0.93;;;;;;;-148.56;100.00;61375.16;5000490;28;20041;-31
2022/03/07 02:46:04;;;;;;;1.95;0.93;;;;;;;-148.56;100.00;61375.16;4999328;28;20017;-30
2022/03/07 02:49:28;;;;;;;0.88;0.70;;;;;;;-148.56;100.00;61375.16;4997513;28;20164;-30
2022/03/07 02:52:51;;;;;;;0.75;0.60;;;;;;;-148.56;100.00;61375.16;5002705;28;22142;-34
2022/03/07 02:56:16;;;;;;;1.13;0.75;;;;;;;-148.56;100.00;61375.16;4998020;28;20045;-30
2022/03/07 02:59:40;;;;;;;1.35;0.77;;;;;;;-148.56;100.00;61375.16;5006532;28;20040;-29
2022/03/07 03:03:03;;;;;;;0.90;0.75;;;;;;;-148.56;100.00;61375.16;5004723;28;20036;-27
2022/03/07 03:06:27;;;;;;;0.80;0.80;;;;;;;-148.56;100.00;61375.16;5006563;28;20116;-29
2022/03/07 03:09:51;;;;;;;1.27;0.68;;;;;;;-148.56;100.00;61375.16;5008540;28;20568;-29
2022/03/07 03:13:17;;;;;;;0.68;0.60;;;;;;;-148.56;100.00;61375.16;5005593;28;20033;-32
2022/03/07 03:16:41;;;;;;;2.22;0.80;;;;;;;-148.56;100.00;61375.16;5002840;28;20037;-32
2022/03/07 03:20:05;;;;;;;0.90;0.70;;;;;;;-148.56;100.00;61375.16;5008298;28;20068;-31
2022/03/07 03:23:29;;;;;;;0.47;0.47;;;;;;;-148.56;100.00;61375.16;5007953;28;20037;-27
2022/03/07 03:26:53;;;;;;;1.27;0.60;;;;;;;-148.56;100.00;61375.16;5007079;28;20695;-30
2022/03/07 03:30:17;;;;;;;0.90;0.73;;;;;;;-148.56;100.00;61375.16;5006872;28;20029;-30
2022/03/07 03:33:42;;;;;;;0.98;0.77;;;;;;;-148.56;100.00;61375.16;5008737;28;20040;-31
2022/03/07 03:37:06;;;;;;;1.55;0.55;;;;;;;-148.56;100.00;61375.16;5011574;28;20062;-32
2022/03/07 03:40:30;;;;;;;1.20;0.70;;;;;;;-148.56;100.00;61375.16;5010118;28;20033;-31
2022/03/07 03:43:53;;;;;;;0.65;0.63;;;;;;;-148.56;100.00;61375.16;5010590;28;20033;-30
2022/03/07 03:47:17;;;;;;;0.50;0.47;;;;;;;-148.56;100.00;61375.16;5010137;28;20029;-31
2022/03/07 03:50:41;;;;;;;1.10;0.70;;;;;;;-148.56;100.00;61375.16;5009616;28;20091;-30
2022/03/07 03:54:05;;;;;;;0.60;0.60;;;;;;;-148.56;100.00;61375.16;5003090;28;20025;-29
2022/03/07 03:57:29;;;;;;;0.70;0.57;;;;;;;-148.56;100.00;61375.16;5010405;28;20030;-28
2022/03/07 04:00:53;;;;;;;1.00;0.50;;;;;;;-148.56;100.00;61375.16;5001944;28;20038;-30
2022/03/07 04:04:17;;;;;;;0.77;0.70;;;;;;;-148.56;100.00;61375.16;5008520;28;20033;-29
2022/03/07 04:07:41;;;;;;;0.63;0.52;;;;;;;-148.56;100.00;61375.16;5009911;28;20412;-33
2022/03/07 04:11:05;;;;;;;1.45;0.70;;;;;;;-148.56;100.00;61375.16;5002415;28;20119;-29
2022/03/07 04:14:29;;;;;;;0.50;0.50;;;;;;;-148.56;100.00;61375.16;5005468;28;20025;-25
2022/03/07 04:17:54;;;;;;;1.65;0.60;;;;;;;-148.56;100.00;61375.16;5008970;28;20038;-31
2022/03/07 04:21:19;;;;;;;1.92;0.90;;;;;;;-148.56;100.00;61375.16;5010409;28;20041;-30
2022/03/07 04:24:43;;;;;;;1.13;0.70;;;;;;;-148.56;100.00;61375.16;5008688;28;20163;-27
2022/03/07 04:28:07;;;;;;;0.98;0.60;;;;;;;-148.56;100.00;61375.16;5009754;28;20029;-28
2022/03/07 04:31:31;;;;;;;0.50;0.50;;;;;;;-148.56;100.00;61375.16;5003315;28;20504;-29
2022/03/07 04:34:55;;;;;;;1.50;0.60;;;;;;;-148.56;100.00;61375.16;5008897;28;20057;-31
2022/03/07 04:38:24;;;;;;;1.13;0.60;;;;;;;-148.56;100.00;61375.16;5010012;28;20037;-29
2022/03/07 04:41:48;;;;;;;0.93;0.60;;;;;;;-148.56;100.00;61375.16;5009248;28;20038;-27
2022/03/07 04:45:12;;;;;;;1.00;0.55;;;;;;;-148.56;100.00;61375.16;5009520;28;20025;-33
2022/03/07 04:48:36;;;;;;;0.80;0.77;;;;;;;-148.56;100.00;61375.16;5009667;28;20033;-30
2022/03/07 04:52:00;;;;;;;0.60;0.60;;;;;;;-148.56;100.00;61375.16;5006372;28;20022;-27
2022/03/07 04:55:23;;;;;;;2.63;0.57;;;;;;;-148.56;100.00;61375.16;5005831;28;20029;-26
2022/03/07 04:58:47;;;;;;;0.40;0.40;;;;;;;-148.56;100.00;61375.16;5008721;28;20930;-28
2022/03/07 05:02:13;;;;;;;1.10;0.57;;;;;;;-148.56;100.00;61375.16;5011421;28;20059;-30
2022/03/07 05:05:36;;;;;;;1.65;0.68;;;;;;;-148.56;100.00;61375.16;5006211;28;20037;-32
2022/03/07 05:09:01;;;;;;;1.02;0.70;;;;;;;-148.56;100.00;61375.16;5007116;28;20757;-27
2022/03/07 05:12:25;;;;;;;0.73;0.50;;;;;;;-148.56;100.00;61375.16;5006121;28;20601;-30
2022/03/07 05:15:49;;;;;;;0.60;0.60;;;;;;;-148.56;100.00;61375.16;5008640;28;20988;-27
2022/03/07 05:19:13;;;;;;;0.40;0.38;;;;;;;-148.56;100.00;61375.16;5004227;28;20663;-27
2022/03/07 05:22:37;;;;;;;0.93;0.60;;;;;;;-148.56;100.00;61375.16;5008446;28;20037;-28
2022/03/07 05:26:01;;;;;;;0.68;0.68;;;;;;;-148.56;100.00;61375.16;5007624;28;20040;-29
2022/03/07 05:29:25;;;;;;;2.45;0.77;;;;;;;-148.56;100.00;61375.16;5009702;28;20053;-28
2022/03/07 05:32:52;;;;;;;0.52;0.52;;;;;;;-148.56;100.00;61375.16;5008640;28;20041;-31
2022/03/07 05:36:16;;;;;;;0.50;0.50;;;;;;;-148.56;100.00;61375.16;5005972;28;20034;-27
2022/03/07 05:39:40;;;;;;;1.10;0.60;;;;;;;-148.56;100.00;61375.16;5007062;28;20578;-29
2022/03/07 05:43:04;;;;;;;4.28;1.50;;;;;;;-148.56;100.00;61375.16;5007455;28;20076;-29
2022/03/07 05:46:28;;;;;;;0.90;0.80;;;;;;;-148.56;100.00;61375.16;5009169;28;20042;-30
2022/03/07 05:49:52;;;;;;;1.95;0.85;;;;;;;-148.56;100.00;61375.16;5007318;28;20131;-31
2022/03/07 05:53:21;;;;;;;1.35;0.70;;;;;;;-148.56;100.00;61375.16;5006291;28;20060;-32
2022/03/07 05:56:44;;;;;;;1.20;0.82;;;;;;;-148.56;100.00;61375.16;5002523;28;20069;-28
2022/03/07 06:00:09;;;;;;;2.30;0.85;;;;;;;-148.56;100.00;61375.16;5004205;28;20029;-29
2022/03/07 06:03:33;;;;;;;1.13;0.65;;;;;;;-148.56;100.00;61375.16;5006678;28;20145;-29
2022/03/07 06:06:56;;;;;;;0.70;0.70;;;;;;;-148.56;100.00;61375.16;5005605;28;20036;-26
2022/03/07 06:10:20;;;;;;;1.23;0.70;;;;;;;-148.56;100.00;61375.16;5004485;28;20022;-30
2022/03/07 06:13:44;;;;;;;0.77;0.70;;;;;;;-148.56;100.00;61375.16;5007360;28;20122;-30
2022/03/07 06:17:08;;;;;;;0.68;0.68;;;;;;;-148.56;100.00;61375.16;5008795;28;20103;-30
2022/03/07 06:20:32;;;;;;;0.70;0.70;;;;;;;-148.56;100.00;61375.16;5008903;28;20057;-27
2022/03/07 06:23:56;;;;;;;1.08;0.88;;;;;;;-148.56;100.00;61375.16;5008041;28;20063;-30
2022/03/07 06:27:20;;;;;;;0.95;0.70;;;;;;;-148.56;100.00;61375.16;5009400;28;20041;-26
2022/03/07 06:30:46;;;;;;;1.30;0.90;;;;;;;-148.56;100.00;61375.16;5005400;28;20583;-29
2022/03/07 06:34:10;;;;;;;1.27;0.50;;;;;;;-148.56;100.00;61375.16;5008394;28;20052;-29
2022/03/07 06:37:34;;;;;;;0.50;0.50;;;;;;;-148.56;100.00;61375.16;5008415;28;20025;-29
2022/03/07 06:40:58;;;;;;;1.10;0.80;;;;;;;-148.56;100.00;61375.16;5005168;28;20042;-28
2022/03/07 06:44:25;;;;;;;0.68;0.60;;;;;;;-148.56;100.00;61375.16;5012428;28;20052;-29
2022/03/07 06:47:49;;;;;;;1.00;0.73;;;;;;;-148.56;100.00;61375.16;5004681;28;20026;-29
2022/03/07 06:51:13;;;;;;;1.75;0.80;;;;;;;-148.56;100.00;61375.16;5006606;28;20061;-26
2022/03/07 06:54:37;;;;;;;3.15;0.88;;;;;;;-148.56;100.00;61375.16;5004937;28;20029;-29
2022/03/07 06:58:01;;;;;;;5.22;0.93;;;;;;;-148.56;100.00;61375.16;5004603;28;20033;-27
2022/03/07 07:01:24;;;;;;;12.25;3.30;;;;;;;-148.56;100.00;61375.16;5005707;28;20999;-32
2022/03/07 07:04:48;;;;;;;14.98;3.50;;;;;;;-148.56;100.00;61375.16;5001232;28;20511;-31
2022/03/07 07:08:12;;;;;;;18.92;4.40;;;;;;;-148.56;100.00;61375.16;4996048;28;20029;-27
2022/03/07 07:11:36;;;;;;;18.90;4.70;;;;;;;-148.56;100.00;61375.16;5007989;28;20048;-29
2022/03/07 07:15:01;;;;;;;12.63;4.07;;;;;;;-148.56;100.00;61375.16;5005506;28;20037;-27
2022/03/07 07:18:25;;;;;;;12.68;3.95;;;;;;;-148.56;100.00;61375.16;5006304;28;20037;-29
2022/03/07 07:21:49;;;;;;;12.40;3.70;;;;;;;-148.56;100.00;61375.16;5008124;28;20088;-29
2022/03/07 07:25:13;;;;;;;11.00;3.35;;;;;;;-148.56;100.00;61375.16;5010330;28;20033;-28
2022/03/07 07:28:37;;;;;;;8.00;3.13;;;;;;;-148.56;100.00;61375.16;5007936;28;20021;-30
2022/03/07 07:32:02;;;;;;;10.45;3.50;;;;;;;-148.56;100.00;61375.16;5010135;28;20033;-30
2022/03/07 07:35:26;;;;;;;7.20;3.13;;;;;;;-148.56;100.00;61375.16;5011269;28;20068;-28
2022/03/07 07:38:50;;;;;;;7.15;3.08;;;;;;;-148.56;100.00;61375.16;5009275;28;20022;-31
2022/03/07 07:42:14;;;;;;;8.10;3.33;;;;;;;-148.56;100.00;61375.16;4998916;28;20058;-29
2022/03/07 07:45:38;;;;;;;7.13;2.78;;;;;;;-148.56;100.00;61375.16;5000642;28;20038;-29
2022/03/07 07:49:02;;;;;;;8.93;2.97;;;;;;;-148.56;100.00;61375.16;4999771;28;20034;-28
2022/03/07 07:52:26;;;;;;;5.68;2.90;;;;;;;-148.56;100.00;61375.16;5000993;28;20029;-29
2022/03/07 07:55:50;;;;;;;7.65;2.65;;;;;;;-148.56;100.00;61375.16;4998596;28;20036;-31
2022/03/07 07:59:13;;;;;;;8.32;2.90;;;;;;;-148.56;100.00;61375.16;5003264;28;20088;-30
2022/03/07 08:02:37;;;;;;;7.82;2.67;;;;;;;-148.56;100.00;61375.16;5001943;28;20030;-29
2022/03/07 08:06:02;;;;;;;7.68;2.47;;;;;;;-148.56;100.00;61375.16;4999649;28;20053;-30
2022/03/07 08:09:26;;;;;;;7.32;2.47;;;;;;;-148.56;100.00;61375.16;4999523;28;20017;-29
2022/03/07 08:12:49;;;;;;;9.40;2.88;;;;;;;-148.56;100.00;61375.16;5000581;28;20195;-29
2022/03/07 08:16:13;;;;;;;4.68;2.40;;;;;;;-148.56;100.00;61375.16;4998065;28;20088;-31
2022/03/07 08:19:38;;;;;;;4.53;2.60;;;;;;;-148.56;100.00;61375.16;4993450;28;20062;-30
2022/03/07 08:23:02;;;;;;;8.02;2.53;;;;;;;-148.56;100.00;61375.16;5002918;28;20597;-29
2022/03/07 08:26:25;;;;;;;5.85;2.88;;;;;;;-148.56;100.00;61375.16;4999343;28;20476;-28
2022/03/07 08:29:49;;;;;;;6.93;2.75;;;;;;;-148.56;100.00;61375.16;4993938;28;20125;-30
2022/03/07 08:33:13;;;;;;;5.07;2.17;;;;;;;-148.56;100.00;61375.16;4983509;28;20034;-29
2022/03/07 08:36:37;;;;;;;3.75;2.08;;;;;;;-148.56;100.00;61375.16;4982820;28;20029;-27
2022/03/07 08:40:02;;;;;;;6.32;2.10;;;;;;;-148.56;100.00;61375.16;4981795;28;20442;-25
2022/03/07 08:43:26;;;;;;;5.38;2.60;;;;;;;-148.56;100.00;61375.16;4981338;28;20032;-30
2022/03/07 08:46:49;;;;;;;4.55;2.35;;;;;;;-148.56;100.00;61375.16;4982720;28;20092;-26
2022/03/07 08:50:15;;;;;;;5.05;2.25;;;;;;;-148.56;100.00;61375.16;4996820;28;20033;-31
2022/03/07 08:53:38;;;;;;;7.60;2.42;;;;;;;-148.56;100.00;61375.16;4998386;28;20443;-27
2022/03/07 08:57:02;;;;;;;5.10;1.98;;;;;;;-148.56;100.00;61375.16;5001794;28;20387;-29
2022/03/07 09:00:26;;;;;;;3.75;2.00;;;;;;;-148.56;100.00;61375.16;4999730;28;20034;-31
2022/03/07 09:03:50;;;;;;;3.25;2.10;;;;;;;-148.56;100.00;61375.16;4999778;28;20037;-26
2022/03/07 09:07:14;;;;;;;5.65;2.25;;;;;;;-148.56;100.00;61375.16;5000434;28;20044;-26
2022/03/07 09:10:38;;;;;;;3.75;2.00;;;;;;;-148.56;100.00;61375.16;4995485;28;20033;-28
2022/03/07 09:14:02;;;;;;;4.95;2.05;;;;;;;-148.56;100.00;61375.16;5001224;28;20030;-32
2022/03/07 09:17:26;;;;;;;3.88;2.00;;;;;;;-148.56;100.00;61375.16;4999452;28;20110;-33
2022/03/07 09:20:50;;;;;;;3.90;1.90;;;;;;;-148.56;100.00;61375.16;5000003;28;20072;-27
2022/03/07 09:24:14;;;;;;;5.53;1.92;;;;;;;-148.56;100.00;61375.16;4997537;28;20033;-32
2022/03/07 09:27:38;;;;;;;4.80;2.28;;;;;;;-148.56;100.00;61375.16;4998725;28;20030;-32
2022/03/07 09:31:02;;;;;;;4.35;1.90;;;;;;;-148.56;100.00;61375.16;5003556;28;20025;-31
2022/03/07 09:34:26;;;;;;;6.80;1.85;;;;;;;-148.56;100.00;61375.16;5002921;28;20036;-30
2022/03/07 09:37:50;;;;;;;3.08;1.73;;;;;;;-148.56;100.00;61375.16;5000856;28;20017;-31
2022/03/07 09:41:14;;;;;;;6.70;1.92;;;;;;;-148.56;100.00;61375.16;4998561;28;20048;-31
2022/03/07 09:44:38;;;;;;;4.03;1.92;;;;;;;-148.56;100.00;61375.16;4996135;28;22125;-27
2022/03/07 09:48:02;;;;;;;3.25;1.90;;;;;;;-148.56;100.00;61375.16;4993925;28;20120;-28
2022/03/07 09:51:26;;;;;;;5.53;1.92;;;;;;;-148.56;100.00;61375.16;4969327;28;20083;-32
2022/03/07 09:54:50;;;;;;;11.93;5.97;;;;;;;-148.56;100.00;61375.16;4965918;28;23034;-33
2022/03/07 09:58:14;;;;;;;8.52;6.65;;;;;;;-148.56;100.00;61375.16;4965110;28;20482;-26
2022/03/07 10:01:38;;;;;;;9.40;5.68;;;;;;;-148.56;100.00;61375.16;4959453;28;20120;-26
2022/03/07 10:05:06;;;;;;;5.55;4.35;;;;;;;-148.56;100.00;61375.16;4996437;28;20029;-27
2022/03/07 10:08:40;;;;;;;6.93;4.57;;;;;;;-148.56;100.00;61375.16;5005624;28;20061;-29
2022/03/07 10:12:06;;;;;;;6.13;3.90;;;;;;;-148.56;100.00;61375.16;4994550;28;20164;-26
2022/03/07 10:15:30;;;;;;;6.40;4.18;;;;;;;-148.56;100.00;61375.16;4999536;28;20045;-29
2022/03/07 10:18:54;;;;;;;5.50;3.78;;;;;;;-148.56;100.00;61375.16;4996566;28;20120;-27
2022/03/07 10:22:19;;;;;;;4.22;3.30;;;;;;;-148.56;100.00;61375.16;4965078;28;20170;-27
2022/03/07 10:25:44;;;;;;;4.00;3.25;;;;;;;-148.56;100.00;61375.16;4966990;28;20040;-30
2022/03/07 10:29:08;;;;;;;3.65;2.95;;;;;;;-148.56;100.00;61375.16;4975084;28;20036;-25
2022/03/07 10:32:32;;;;;;;4.32;3.03;;;;;;;-148.56;100.00;61375.16;4995962;28;20029;-30
2022/03/07 10:35:55;;;;;;;5.65;3.20;;;;;;;-148.56;100.00;61375.16;5005482;28;20461;-27
2022/03/07 10:39:24;;;;;;;5.40;3.67;;;;;;;-148.56;100.00;61375.16;5002419;28;20029;-27
2022/03/07 10:42:48;;;;;;;9.52;3.65;;;;;;;-148.56;100.00;61375.16;4982203;28;20030;-31
2022/03/07 10:46:12;;;;;;;8.20;3.90;;;;;;;-148.56;100.00;61375.16;4979977;28;20045;-32
2022/03/07 10:49:46;;;;;;;6.32;3.80;;;;;;;-148.56;100.00;61375.16;4998992;28;20504;-27
2022/03/07 10:53:10;;;;;;;8.40;3.50;;;;;;;-148.56;100.00;61375.16;5006156;28;20033;-28
2022/03/07 10:56:34;;;;;;;5.78;3.70;;;;;;;-148.56;100.00;61375.16;5005469;28;20610;-28
2022/03/07 11:00:02;;;;;;;13.02;3.90;;;;;;;-148.56;100.00;61375.16;5000763;28;20483;-32
2022/03/07 11:03:37;;;;;;;5.65;3.38;;;;;;;-148.56;100.00;61375.16;5006991;28;20845;-31
2022/03/07 11:07:01;;;;;;;8.13;3.38;;;;;;;-148.56;100.00;61375.16;5010753;28;20156;-30
2022/03/07 11:10:25;;;;;;;8.45;3.60;;;;;;;-148.56;100.00;61375.16;5007067;28;20029;-31
2022/03/07 11:13:55;;;;;;;4.82;3.30;;;;;;;-148.56;100.00;61375.16;5002042;28;20029;-30
2022/03/07 11:17:22;;;;;;;5.22;3.05;;;;;;;-148.56;100.00;61375.16;5008311;28;20045;-28
2022/03/07 11:20:47;;;;;;;7.60;2.85;;;;;;;-148.56;100.00;61375.16;5005878;28;20048;-30
2022/03/07 11:24:11;;;;;;;3.92;2.97;;;;;;;-148.56;100.00;61375.16;5007326;28;20029;-30
2022/03/07 11:27:35;;;;;;;4.38;3.00;;;;;;;-148.56;100.00;61375.16;5004992;28;20053;-29
2022/03/07 11:30:59;;;;;;;4.10;2.65;;;;;;;-148.56;100.00;61375.16;4995373;28;20045;-30
2022/03/07 11:34:23;;;;;;;5.07;3.40;;;;;;;-148.56;100.00;61375.16;5004510;28;20021;-27
2022/03/07 11:37:47;;;;;;;6.32;3.78;;;;;;;-148.56;100.00;61375.16;5006475;28;20037;-27
2022/03/07 11:41:15;;;;;;;4.93;3.60;;;;;;;-148.56;100.00;61375.16;5007981;28;20045;-27
2022/03/07 11:44:50;;;;;;;5.95;3.47;;;;;;;-148.56;100.00;61375.16;5003437;28;20526;-31
2022/03/07 11:48:15;;;;;;;4.97;3.40;;;;;;;-148.56;100.00;61375.16;5005226;28;20049;-30
2022/03/07 11:51:19;;;;;;;5.55;3.38;;;;;;;25.93;21.10;96890.03;5011046;28;20034;-26
2022/03/07 11:53:45;;;;;;;10.02;3.83;;;;;;;27.34;21.01;97085.94;5005714;28;20033;-28
2022/03/07 11:56:18;;;;;;;8.18;3.42;;;;;;;27.36;20.96;97084.06;5005530;28;20052;-31
2022/03/07 11:58:49;;;;;;;7.38;3.92;;;;;;;27.39;21.12;97082.09;5009859;28;20052;-29
2022/03/07 12:01:14;;;;;;;7.07;3.10;;;;;;;27.45;20.78;97083.53;5009469;28;20053;-30
2022/03/07 12:03:40;;;;;;;4.55;3.40;;;;;;;27.49;19.93;97078.94;5011478;28;20888;-32
2022/03/07 12:06:07;;;;;;;5.45;3.10;;;;;;;27.53;20.45;97083.97;5008466;28;20288;-30
2022/03/07 12:08:54;;;;;;;4.57;2.85;;;;;;;27.57;20.79;97076.75;5006771;28;20048;-29
2022/03/07 12:11:31;;;;;;;5.13;2.88;;;;;;;27.63;20.78;97080.84;5008604;28;20492;-31
2022/03/07 12:14:02;;;;;;;3.45;2.63;;;;;;;27.68;20.85;97070.06;5009697;28;20048;-29
2022/03/07 12:16:38;;;;;;;6.03;2.50;;;;;;;27.73;20.85;97068.03;5008457;28;20034;-32
2022/03/07 12:19:13;;;;;;;3.97;2.85;;;;;;;27.78;20.76;97068.59;5007696;28;20431;-33
2022/03/07 12:21:41;;;;;;;4.05;2.40;;;;;;;27.82;20.80;97064.00;5009088;28;20034;-35
2022/03/07 12:24:07;;;;;;;7.30;2.75;;;;;;;27.85;20.91;97063.84;5010729;28;20112;-31
2022/03/07 12:26:41;;;;;;;4.97;2.80;;;;;;;27.88;20.74;97061.03;5007697;28;20022;-32
2022/03/07 12:29:06;;;;;;;3.63;2.90;;;;;;;27.89;20.91;97054.81;5009698;28;20753;-29
2022/03/07 12:31:32;;;;;;;4.00;2.67;;;;;;;27.90;20.89;97045.97;5010073;28;20029;-33
2022/03/07 12:33:57;;;;;;;4.70;2.50;;;;;;;27.90;20.88;97041.56;5011148;28;20022;-35
2022/03/07 12:36:23;;;;;;;6.70;2.70;;;;;;;27.91;20.86;97048.53;5010032;28;20030;-30
2022/03/07 12:38:50;;;;;;;4.18;2.53;;;;;;;27.91;21.07;97048.53;5009520;28;20025;-32
2022/03/07 12:41:16;;;;;;;3.67;2.60;;;;;;;27.92;21.16;97038.84;5007394;28;20037;-34
2022/03/07 12:43:43;;;;;;;3.88;2.70;;;;;;;27.92;21.19;97044.94;5004340;28;20504;-31
2022/03/07 12:46:12;;;;;;;3.45;2.40;;;;;;;27.92;21.27;97034.41;5000409;28;20079;-35
2022/03/07 12:48:41;;;;;;;3.03;2.28;;;;;;;27.92;21.04;97039.69;4996684;28;20030;-33
2022/03/07 12:51:07;;;;;;;3.63;2.42;;;;;;;27.91;21.20;97038.00;5004517;28;22961;-33
2022/03/07 12:53:59;;;;;;;3.22;2.45;;;;;;;27.90;21.12;97031.03;5005983;28;20032;-31
2022/03/07 12:56:38;;;;;;;4.07;2.50;;;;;;;27.86;21.04;97024.25;5010523;28;20041;-35
2022/03/07 12:59:04;;;;;;;4.68;2.70;;;;;;;27.84;21.01;97020.84;5011483;28;20069;-34
2022/03/07 13:01:31;;;;;;;3.83;2.70;;;;;;;27.79;21.29;97009.72;5011134;28;20392;-29
2022/03/07 13:03:57;;;;;;;4.05;2.70;;;;;;;27.73;21.29;97012.72;5008717;28;20033;-35
2022/03/07 13:06:23;;;;;;;3.67;2.45;;;;;;;27.68;21.41;97009.53;5009095;28;20747;-33
2022/03/07 13:08:53;;;;;;;5.00;2.85;;;;;;;27.63;21.39;97007.13;5009061;28;20065;-32
2022/03/07 13:11:32;;;;;;;3.80;2.50;;;;;;;27.56;21.53;97005.75;5009711;28;20037;-34
2022/03/07 13:13:58;;;;;;;3.83;2.70;;;;;;;27.49;21.52;97000.84;5007574;28;20776;-26
2022/03/07 13:16:27;;;;;;;3.47;2.50;;;;;;;27.44;21.60;97002.03;5007369;28;20041;-34
2022/03/07 13:19:00;;;;;;;4.13;2.40;;;;;;;27.38;21.63;96998.81;5002624;28;20022;-31
2022/03/07 13:21:26;;;;;;;3.33;2.42;;;;;;;27.34;21.71;97001.72;5010222;28;20061;-29
2022/03/07 13:23:51;;;;;;;5.72;2.25;;;;;;;27.28;21.88;97002.91;5006825;28;20032;-29
2022/03/07 13:26:21;;;;;;;4.72;2.50;;;;;;;27.22;21.84;97003.25;5005461;28;20045;-29
2022/03/07 13:28:47;;;;;;;3.63;2.40;;;;;;;27.18;21.87;97014.88;5004904;28;20028;-26
2022/03/07 13:31:13;;;;;;;3.45;2.30;;;;;;;27.11;22.11;97002.06;5005621;28;20439;-29
2022/03/07 13:33:38;;;;;;;3.45;2.28;;;;;;;27.07;22.09;97005.78;5008436;28;20087;-25
2022/03/07 13:36:13;;;;;;;3.03;2.20;;;;;;;27.01;22.18;96995.63;5008738;28;20030;-27
2022/03/07 13:38:40;;;;;;;4.25;2.20;;;;;;;26.97;22.19;96994.09;5006323;28;20550;-30
2022/03/07 13:41:06;;;;;;;3.42;2.10;;;;;;;26.94;22.36;96991.59;5007927;28;20551;-32
2022/03/07 13:43:32;;;;;;;3.53;1.98;;;;;;;26.90;22.36;96987.44;5002415;28;20036;-30
2022/03/07 13:45:57;;;;;;;3.58;2.20;;;;;;;26.85;22.43;96993.78;5007787;28;20021;-28
2022/03/07 13:48:23;;;;;;;3.00;2.08;;;;;;;26.83;22.42;96986.91;5007228;28;20028;-31
2022/03/07 13:50:51;;;;;;;2.95;2.10;;;;;;;26.80;22.63;96989.72;5007339;28;20109;-29
2022/03/07 13:53:17;;;;;;;3.00;2.20;;;;;;;26.76;22.67;96986.41;5005614;28;20026;-27
2022/03/07 13:55:47;;;;;;;3.45;2.20;;;;;;;26.73;22.66;96987.41;5007878;28;20022;-29
2022/03/07 13:58:26;;;;;;;4.63;2.10;;;;;;;26.69;22.71;96991.16;5008288;28;20029;-28
2022/03/07 14:01:12;;;;;;;6.40;2.28;;;;;;;26.67;22.78;96986.91;5005403;28;20029;-28
2022/03/07 14:03:38;;;;;;;3.47;2.10;;;;;;;26.64;22.79;96979.16;5003798;28;20029;-30
2022/03/07 14:06:03;;;;;;;2.40;1.92;;;;;;;26.61;22.89;96978.41;4999260;28;20032;-31
2022/03/07 14:08:32;;;;;;;3.08;2.00;;;;;;;26.59;23.01;96982.06;4984773;28;20047;-29
2022/03/07 14:10:58;;;;;;;3.83;2.22;;;;;;;26.58;23.01;96973.31;5004519;28;20706;-30
2022/03/07 14:13:36;;;;;;;7.95;2.25;;;;;;;26.56;23.07;96969.94;5001028;28;20815;-28
2022/03/07 14:16:01;;;;;;;2.80;1.92;;;;;;;26.55;23.09;96978.72;5002656;28;20037;-27
2022/03/07 14:18:26;;;;;;;6.10;2.30;;;;;;;26.53;23.00;96979.75;5005674;28;20033;-30
2022/03/07 14:20:52;;;;;;;4.43;2.40;;;;;;;26.52;23.06;96980.69;5003885;28;20656;-31
2022/03/07 14:23:18;;;;;;;4.97;2.10;;;;;;;26.52;23.06;96984.16;5007097;28;20025;-30
2022/03/07 14:25:44;;;;;;;2.85;2.00;;;;;;;26.50;23.15;96980.75;5004842;28;20029;-29
2022/03/07 14:28:09;;;;;;;2.97;2.00;;;;;;;26.49;23.22;96979.06;5007305;28;20026;-25
2022/03/07 14:30:35;;;;;;;3.22;2.20;;;;;;;26.48;23.26;96972.94;5007536;28;20037;-32
2022/03/07 14:33:00;;;;;;;8.35;2.03;;;;;;;26.47;23.46;96976.53;5010064;28;20087;-29
2022/03/07 14:35:26;;;;;;;5.63;2.10;;;;;;;26.46;23.34;96979.22;5005687;28;20037;-28